Time;durP1;ratioP1;P1;durP2;ratioP2;P2;SDS_P1;SDS_P2;PMS_P1;PMS_P2;Temp;Humidity;BMP_temperature;BMP_pressure;BME280_temperature;BME280_humidity;BME280_pressure;Samples;Min_cycle;Max_cycle;Signal;HPM_P1;HPM_P2
2023/03/04 00:01:00;;;;;;;12.10;5.10;;;;;;;;;;5033313;28;20265;-71
2023/03/04 00:03:26;;;;;;;17.83;6.40;;;;;;;;;;5033260;28;20202;-71
2023/03/04 00:05:52;;;;;;;21.27;6.70;;;;;;;;;;5033458;28;20186;-71
2023/03/04 00:08:18;;;;;;;21.97;5.53;;;;;;;;;;5015618;28;20191;-70
2023/03/04 00:10:44;;;;;;;24.10;6.60;;;;;;;;;;5033363;28;20209;-71
2023/03/04 00:13:10;;;;;;;17.77;7.00;;;;;;;;;;5033124;28;20199;-71
2023/03/04 00:15:36;;;;;;;18.83;6.67;;;;;;;;;;5032987;28;20266;-71
2023/03/04 00:18:02;;;;;;;18.30;5.97;;;;;;;;;;5033508;28;20179;-71
2023/03/04 00:20:28;;;;;;;20.63;6.53;;;;;;;;;;5015498;28;20226;-70
2023/03/04 00:22:54;;;;;;;24.83;7.67;;;;;;;;;;5033131;28;20210;-71
2023/03/04 00:25:20;;;;;;;25.57;8.37;;;;;;;;;;5036852;28;20664;-71
2023/03/04 00:27:46;;;;;;;24.17;6.13;;;;;;;;;;5019139;28;20533;-71
2023/03/04 00:30:12;;;;;;;21.93;6.10;;;;;;;;;;5037031;28;20256;-71
2023/03/04 00:32:38;;;;;;;18.97;6.07;;;;;;;;;;5036815;28;20262;-71
2023/03/04 00:35:05;;;;;;;15.43;5.53;;;;;;;;;;5019087;28;20175;-71
2023/03/04 00:37:31;;;;;;;21.17;5.20;;;;;;;;;;5036728;28;20684;-71
2023/03/04 00:39:57;;;;;;;22.67;6.93;;;;;;;;;;5018802;28;20217;-71
2023/03/04 00:42:23;;;;;;;24.10;6.40;;;;;;;;;;5018586;28;20207;-71
2023/03/04 00:44:50;;;;;;;13.40;5.00;;;;;;;;;;5018714;28;20679;-71
2023/03/04 00:47:16;;;;;;;18.23;5.20;;;;;;;;;;5018759;28;20214;-71
2023/03/04 00:49:42;;;;;;;21.43;5.70;;;;;;;;;;5036381;28;20288;-70
2023/03/04 00:52:08;;;;;;;19.43;5.90;;;;;;;;;;5018472;28;20202;-71
2023/03/04 00:54:34;;;;;;;24.60;7.63;;;;;;;;;;5036439;28;20167;-71
2023/03/04 00:57:00;;;;;;;22.07;6.93;;;;;;;;;;5036289;28;20667;-70
2023/03/04 00:59:25;;;;;;;17.13;5.80;;;;;;;;;;5036251;28;20254;-71
2023/03/04 01:01:51;;;;;;;17.90;6.60;;;;;;;;;;5018394;28;20183;-71
2023/03/04 01:04:17;;;;;;;22.17;5.80;;;;;;;;;;5018277;28;20179;-71
2023/03/04 01:06:43;;;;;;;17.33;5.03;;;;;;;;;;5036399;28;20258;-71
2023/03/04 01:09:09;;;;;;;21.50;5.27;;;;;;;;;;5018284;28;20175;-71
2023/03/04 01:11:35;;;;;;;22.83;6.90;;;;;;;;;;5018255;28;20302;-71
2023/03/04 01:14:01;;;;;;;23.20;6.60;;;;;;;;;;5035956;28;20194;-71
2023/03/04 01:16:27;;;;;;;25.57;6.37;;;;;;;;;;5018477;28;20249;-71
2023/03/04 01:18:53;;;;;;;21.13;7.27;;;;;;;;;;5036103;28;20263;-71
2023/03/04 01:21:19;;;;;;;27.17;7.00;;;;;;;;;;5018183;28;20194;-71
2023/03/04 01:23:45;;;;;;;26.27;7.00;;;;;;;;;;5018123;28;20218;-71
2023/03/04 01:26:11;;;;;;;31.83;7.90;;;;;;;;;;5035658;28;20179;-70
2023/03/04 01:28:37;;;;;;;25.00;7.70;;;;;;;;;;5035688;28;20175;-71
2023/03/04 01:31:03;;;;;;;24.37;6.87;;;;;;;;;;5035508;28;20211;-71
2023/03/04 01:33:29;;;;;;;17.27;5.17;;;;;;;;;;5017887;28;20209;-71
2023/03/04 01:35:56;;;;;;;19.57;7.20;;;;;;;;;;5034686;28;20182;-71
2023/03/04 01:38:22;;;;;;;29.37;7.97;;;;;;;;;;5035732;28;20179;-71
2023/03/04 01:40:48;;;;;;;22.47;7.73;;;;;;;;;;5035516;28;20179;-71
2023/03/04 01:43:16;;;;;;;21.37;7.13;;;;;;;;;;5035411;28;20207;-71
2023/03/04 01:45:42;;;;;;;26.60;6.67;;;;;;;;;;5035478;28;20275;-71
2023/03/04 01:48:09;;;;;;;26.70;6.60;;;;;;;;;;5035457;28;20365;-71
2023/03/04 01:50:35;;;;;;;21.27;6.13;;;;;;;;;;5017551;28;20297;-70
2023/03/04 01:53:02;;;;;;;20.33;6.13;;;;;;;;;;5035135;28;20240;-71
2023/03/04 01:55:29;;;;;;;20.03;5.50;;;;;;;;;;5035837;28;20176;-71
2023/03/04 01:57:56;;;;;;;21.50;5.93;;;;;;;;;;5017295;28;20269;-71
2023/03/04 02:00:22;;;;;;;22.97;5.37;;;;;;;;;;5035172;28;20184;-70
2023/03/04 02:02:49;;;;;;;24.00;5.17;;;;;;;;;;5017283;28;20257;-71
2023/03/04 02:05:16;;;;;;;23.60;5.43;;;;;;;;;;5017281;28;20240;-71
2023/03/04 02:07:42;;;;;;;17.27;5.13;;;;;;;;;;5034924;28;20197;-71
2023/03/04 02:10:09;;;;;;;26.97;6.20;;;;;;;;;;5017052;28;20206;-71
2023/03/04 02:12:34;;;;;;;22.83;6.30;;;;;;;;;;5017298;28;20203;-70
2023/03/04 02:15:00;;;;;;;16.03;4.57;;;;;;;;;;5036060;28;20178;-71
2023/03/04 02:17:27;;;;;;;24.23;6.87;;;;;;;;;;5036221;28;20179;-70
2023/03/04 02:20:02;;;;;;;25.17;6.33;;;;;;;;;;5017745;28;20191;-70
2023/03/04 02:22:28;;;;;;;30.20;5.33;;;;;;;;;;5035254;28;20242;-71
2023/03/04 02:24:56;;;;;;;23.33;4.73;;;;;;;;;;5034812;28;20262;-71
2023/03/04 02:27:22;;;;;;;19.67;5.03;;;;;;;;;;5034699;28;20179;-71
2023/03/04 02:29:48;;;;;;;18.13;4.77;;;;;;;;;;5034530;28;20213;-71
2023/03/04 02:32:14;;;;;;;15.37;4.23;;;;;;;;;;5034458;28;20202;-71
2023/03/04 02:34:44;;;;;;;27.63;4.97;;;;;;;;;;5034475;28;20179;-71
2023/03/04 02:37:11;;;;;;;20.27;4.93;;;;;;;;;;5034438;28;20218;-71
2023/03/04 02:39:41;;;;;;;20.53;4.70;;;;;;;;;;5016788;28;20640;-72
2023/03/04 02:42:07;;;;;;;22.97;5.33;;;;;;;;;;5034257;28;20203;-71
2023/03/04 02:44:37;;;;;;;17.23;5.73;;;;;;;;;;5016654;28;20183;-71
2023/03/04 02:47:05;;;;;;;22.10;5.10;;;;;;;;;;5016478;28;20183;-72
2023/03/04 02:49:32;;;;;;;16.37;4.10;;;;;;;;;;5034594;28;20207;-71
2023/03/04 02:52:05;;;;;;;24.00;4.70;;;;;;;;;;5033984;28;20544;-71
2023/03/04 02:54:31;;;;;;;26.77;4.10;;;;;;;;;;5034198;28;20222;-71
2023/03/04 02:56:59;;;;;;;20.43;4.60;;;;;;;;;;5034006;28;20676;-71
2023/03/04 02:59:25;;;;;;;19.03;4.67;;;;;;;;;;5016236;28;20187;-71
2023/03/04 03:01:51;;;;;;;22.00;4.20;;;;;;;;;;5016316;28;20180;-71
2023/03/04 03:04:18;;;;;;;20.97;5.03;;;;;;;;;;5016344;28;20278;-71
2023/03/04 03:06:44;;;;;;;14.93;4.03;;;;;;;;;;5016266;28;20329;-71
2023/03/04 03:09:10;;;;;;;16.60;4.20;;;;;;;;;;5033911;28;20174;-71
2023/03/04 03:11:36;;;;;;;19.37;4.20;;;;;;;;;;5034144;28;20545;-71
2023/03/04 03:14:03;;;;;;;22.80;4.33;;;;;;;;;;5033734;28;20202;-69
2023/03/04 03:16:29;;;;;;;16.80;4.10;;;;;;;;;;5034022;28;20190;-70
2023/03/04 03:18:55;;;;;;;17.67;4.87;;;;;;;;;;5016473;28;20668;-70
2023/03/04 03:21:21;;;;;;;18.90;3.70;;;;;;;;;;5016806;28;20613;-69
2023/03/04 03:23:47;;;;;;;15.17;3.70;;;;;;;;;;5036960;28;20281;-70
2023/03/04 03:26:13;;;;;;;12.67;3.43;;;;;;;;;;5037679;28;20183;-70
2023/03/04 03:28:39;;;;;;;13.67;4.07;;;;;;;;;;5020689;28;20209;-69
2023/03/04 03:31:05;;;;;;;14.87;4.13;;;;;;;;;;5036428;28;20205;-70
2023/03/04 03:33:31;;;;;;;16.63;3.90;;;;;;;;;;5015775;28;20195;-71
2023/03/04 03:35:57;;;;;;;13.90;4.27;;;;;;;;;;5033671;28;20175;-71
2023/03/04 03:38:23;;;;;;;22.27;4.67;;;;;;;;;;5033483;28;20258;-71
2023/03/04 03:40:49;;;;;;;14.90;4.40;;;;;;;;;;5015797;28;20617;-71
2023/03/04 03:43:15;;;;;;;12.77;4.13;;;;;;;;;;5033422;28;20199;-71
2023/03/04 03:45:41;;;;;;;19.20;4.33;;;;;;;;;;5033328;28;20204;-71
2023/03/04 03:48:07;;;;;;;14.73;4.00;;;;;;;;;;5033264;28;20233;-71
2023/03/04 03:50:33;;;;;;;18.57;3.93;;;;;;;;;;5033192;28;20207;-71
2023/03/04 03:52:59;;;;;;;14.97;4.57;;;;;;;;;;5015399;28;20222;-71
2023/03/04 03:55:25;;;;;;;12.23;3.93;;;;;;;;;;5033415;28;20183;-71
2023/03/04 03:57:51;;;;;;;18.63;3.77;;;;;;;;;;5033459;28;20179;-71
2023/03/04 04:00:17;;;;;;;18.23;4.07;;;;;;;;;;5039665;28;20743;-71
2023/03/04 04:02:43;;;;;;;15.20;3.73;;;;;;;;;;5039887;28;20711;-71
2023/03/04 04:05:09;;;;;;;10.87;3.20;;;;;;;;;;5022031;28;20187;-71
2023/03/04 04:07:36;;;;;;;19.67;4.83;;;;;;;;;;5021936;28;20193;-72
2023/03/04 04:10:02;;;;;;;16.50;5.37;;;;;;;;;;5040009;28;20198;-71
2023/03/04 04:12:28;;;;;;;16.20;4.37;;;;;;;;;;5039594;28;20194;-71
2023/03/04 04:14:54;;;;;;;20.50;5.57;;;;;;;;;;5039759;28;20237;-71
2023/03/04 04:17:20;;;;;;;14.73;4.70;;;;;;;;;;5021903;28;20189;-71
2023/03/04 04:19:46;;;;;;;16.00;4.40;;;;;;;;;;5040269;28;20183;-71
2023/03/04 04:22:16;;;;;;;14.63;4.47;;;;;;;;;;5021771;28;20721;-71
2023/03/04 04:24:42;;;;;;;15.93;3.87;;;;;;;;;;5021785;28;20187;-71
2023/03/04 04:27:08;;;;;;;15.27;3.93;;;;;;;;;;5039543;28;20183;-71
2023/03/04 04:29:34;;;;;;;14.77;3.87;;;;;;;;;;5039461;28;20183;-70
2023/03/04 04:32:00;;;;;;;17.17;4.50;;;;;;;;;;5039729;28;20175;-70
2023/03/04 04:34:26;;;;;;;12.83;4.07;;;;;;;;;;5021877;28;20179;-70
2023/03/04 04:36:52;;;;;;;15.00;4.20;;;;;;;;;;5039464;28;20660;-71
2023/03/04 04:39:18;;;;;;;17.93;4.47;;;;;;;;;;5039769;28;20527;-70
2023/03/04 04:41:44;;;;;;;12.27;3.70;;;;;;;;;;5039754;28;20704;-71
2023/03/04 04:44:11;;;;;;;10.10;4.07;;;;;;;;;;5039593;28;20217;-70
2023/03/04 04:46:37;;;;;;;11.97;4.50;;;;;;;;;;5021895;28;20183;-71
2023/03/04 04:49:03;;;;;;;13.07;3.90;;;;;;;;;;5039599;28;20665;-73
2023/03/04 04:51:29;;;;;;;14.67;3.97;;;;;;;;;;5040035;28;20214;-71
2023/03/04 04:53:55;;;;;;;14.77;4.10;;;;;;;;;;5023290;28;20214;-71
2023/03/04 04:56:23;;;;;;;9.93;3.20;;;;;;;;;;5039521;28;20221;-72
2023/03/04 04:58:50;;;;;;;12.03;3.53;;;;;;;;;;5039422;28;20179;-71
2023/03/04 05:01:16;;;;;;;13.43;3.40;;;;;;;;;;5039445;28;20210;-71
2023/03/04 05:03:42;;;;;;;15.53;3.60;;;;;;;;;;5021498;28;20209;-71
2023/03/04 05:06:09;;;;;;;18.43;3.93;;;;;;;;;;5039320;28;20183;-71
2023/03/04 05:08:35;;;;;;;11.23;3.00;;;;;;;;;;5022202;28;20189;-71
2023/03/04 05:11:02;;;;;;;20.67;3.00;;;;;;;;;;5019935;28;20203;-71
2023/03/04 05:13:28;;;;;;;19.93;4.17;;;;;;;;;;5018788;28;20195;-70
2023/03/04 05:15:55;;;;;;;17.50;3.77;;;;;;;;;;5036627;28;20208;-70
2023/03/04 05:18:22;;;;;;;10.63;3.27;;;;;;;;;;5018352;28;20665;-71
2023/03/04 05:20:51;;;;;;;10.80;3.30;;;;;;;;;;5020386;28;20206;-69
2023/03/04 05:23:17;;;;;;;17.00;3.73;;;;;;;;;;5037704;28;20257;-70
2023/03/04 05:25:43;;;;;;;14.73;3.37;;;;;;;;;;5037488;28;20183;-70
2023/03/04 05:28:12;;;;;;;15.23;3.60;;;;;;;;;;5018986;28;20198;-70
2023/03/04 05:30:39;;;;;;;20.77;4.33;;;;;;;;;;5018654;28;20716;-70
2023/03/04 05:33:07;;;;;;;13.30;4.60;;;;;;;;;;5018158;28;20227;-70
2023/03/04 05:35:33;;;;;;;15.70;3.37;;;;;;;;;;5036006;28;20175;-71
2023/03/04 05:37:59;;;;;;;15.20;3.77;;;;;;;;;;5035676;28;20553;-71
2023/03/04 05:40:25;;;;;;;18.80;3.30;;;;;;;;;;5035501;28;20207;-71
2023/03/04 05:42:51;;;;;;;10.53;3.00;;;;;;;;;;5035734;28;20195;-70
2023/03/04 05:45:17;;;;;;;11.17;3.27;;;;;;;;;;5035739;28;20233;-70
2023/03/04 05:47:43;;;;;;;25.27;3.53;;;;;;;;;;5035613;28;20189;-71
2023/03/04 05:50:09;;;;;;;13.87;3.90;;;;;;;;;;5017586;28;20203;-70
2023/03/04 05:52:35;;;;;;;20.43;3.63;;;;;;;;;;5035320;28;20210;-70
2023/03/04 05:55:01;;;;;;;14.30;4.17;;;;;;;;;;5035264;28;20179;-70
2023/03/04 05:57:27;;;;;;;13.60;4.50;;;;;;;;;;5035342;28;20175;-71
2023/03/04 05:59:53;;;;;;;18.17;4.50;;;;;;;;;;5035195;28;20190;-70
2023/03/04 06:02:19;;;;;;;17.57;4.90;;;;;;;;;;5017372;28;20294;-70
2023/03/04 06:04:45;;;;;;;17.70;4.47;;;;;;;;;;5017405;28;20657;-70
2023/03/04 06:07:11;;;;;;;14.43;3.47;;;;;;;;;;5017432;28;20265;-70
2023/03/04 06:09:37;;;;;;;16.70;4.70;;;;;;;;;;5017205;28;20229;-72
2023/03/04 06:12:03;;;;;;;15.13;4.57;;;;;;;;;;5017282;28;20210;-70
2023/03/04 06:14:29;;;;;;;12.90;5.03;;;;;;;;;;5017159;28;20681;-71
2023/03/04 06:16:55;;;;;;;14.57;4.03;;;;;;;;;;5035213;28;20175;-72
2023/03/04 06:19:21;;;;;;;13.70;3.93;;;;;;;;;;5017488;28;20181;-71
2023/03/04 06:21:47;;;;;;;11.50;3.50;;;;;;;;;;5016506;28;20179;-72
2023/03/04 06:24:13;;;;;;;14.77;3.67;;;;;;;;;;5035259;28;20191;-71
2023/03/04 06:26:38;;;;;;;12.70;3.40;;;;;;;;;;5034648;28;20175;-70
2023/03/04 06:29:05;;;;;;;11.43;4.20;;;;;;;;;;5034578;28;20179;-71
2023/03/04 06:31:31;;;;;;;14.27;3.00;;;;;;;;;;5034743;28;20669;-71
2023/03/04 06:33:57;;;;;;;14.20;4.43;;;;;;;;;;5016740;28;20225;-71
2023/03/04 06:36:23;;;;;;;12.83;3.47;;;;;;;;;;5034379;28;20181;-71
2023/03/04 06:38:49;;;;;;;15.00;3.50;;;;;;;;;;5034728;28;20269;-71
2023/03/04 06:41:15;;;;;;;15.33;3.53;;;;;;;;;;5016937;28;20186;-71
2023/03/04 06:43:41;;;;;;;13.83;3.73;;;;;;;;;;5034424;28;20199;-71
2023/03/04 06:46:08;;;;;;;14.67;3.50;;;;;;;;;;5016658;28;20190;-71
2023/03/04 06:48:34;;;;;;;17.50;4.43;;;;;;;;;;5034386;28;20657;-71
2023/03/04 06:51:10;;;;;;;13.00;3.43;;;;;;;;;;5034354;28;20286;-71
2023/03/04 06:53:36;;;;;;;15.77;4.07;;;;;;;;;;5034184;28;20692;-71
2023/03/04 06:56:02;;;;;;;16.20;4.60;;;;;;;;;;5034128;28;20178;-71
2023/03/04 06:58:28;;;;;;;15.50;5.83;;;;;;;;;;5016516;28;20179;-71
2023/03/04 07:00:54;;;;;;;18.67;4.77;;;;;;;;;;5034714;28;20179;-71
2023/03/04 07:03:20;;;;;;;24.00;5.53;;;;;;;;;;5034266;28;20202;-71
2023/03/04 07:05:46;;;;;;;13.73;4.93;;;;;;;;;;5016352;28;20265;-69
2023/03/04 07:08:12;;;;;;;16.23;4.57;;;;;;;;;;5016096;28;20273;-71
2023/03/04 07:10:38;;;;;;;13.87;4.00;;;;;;;;;;5034368;28;20198;-71
2023/03/04 07:13:04;;;;;;;14.07;3.77;;;;;;;;;;5033728;28;20218;-71
2023/03/04 07:15:30;;;;;;;18.20;4.23;;;;;;;;;;5034215;28;20179;-71
2023/03/04 07:17:56;;;;;;;14.53;3.80;;;;;;;;;;5034241;28;20180;-71
2023/03/04 07:20:22;;;;;;;9.27;3.50;;;;;;;;;;5034211;28;20175;-71
2023/03/04 07:22:48;;;;;;;12.83;3.70;;;;;;;;;;5033724;28;20214;-71
2023/03/04 07:25:14;;;;;;;17.67;3.73;;;;;;;;;;5015814;28;20564;-71
2023/03/04 07:27:40;;;;;;;17.23;3.40;;;;;;;;;;5015921;28;20274;-71
2023/03/04 07:30:06;;;;;;;13.03;2.90;;;;;;;;;;5033663;28;20203;-71
2023/03/04 07:32:34;;;;;;;13.27;3.70;;;;;;;;;;5015686;28;20286;-71
2023/03/04 07:35:00;;;;;;;12.30;3.03;;;;;;;;;;5033084;28;20229;-71
2023/03/04 07:37:26;;;;;;;17.67;4.87;;;;;;;;;;5015711;28;20180;-71
2023/03/04 07:39:52;;;;;;;12.07;3.63;;;;;;;;;;5033281;28;20171;-71
2023/03/04 07:42:18;;;;;;;17.23;4.80;;;;;;;;;;5033451;28;20202;-71
2023/03/04 07:44:44;;;;;;;12.27;4.33;;;;;;;;;;5033248;28;20229;-71
2023/03/04 07:47:10;;;;;;;9.53;3.10;;;;;;;;;;5033265;28;20180;-71
2023/03/04 07:49:36;;;;;;;12.47;3.20;;;;;;;;;;5033738;28;20609;-71
2023/03/04 07:52:05;;;;;;;14.47;4.17;;;;;;;;;;5033030;28;20250;-70
2023/03/04 07:54:31;;;;;;;11.17;3.70;;;;;;;;;;5033535;28;20579;-70
2023/03/04 07:56:57;;;;;;;10.27;3.60;;;;;;;;;;5015723;28;20215;-71
2023/03/04 07:59:23;;;;;;;11.27;3.23;;;;;;;;;;5015810;28;20261;-70
2023/03/04 08:01:51;;;;;;;12.77;4.43;;;;;;;;;;5033503;28;20251;-71
2023/03/04 08:04:17;;;;;;;9.90;2.93;;;;;;;;;;5016046;28;20278;-70
2023/03/04 08:06:43;;;;;;;8.67;3.40;;;;;;;;;;5049515;23;20246;-69
2023/03/04 08:09:12;;;;;;;15.23;4.60;;;;;;;;;;5018010;28;20171;-68
2023/03/04 08:11:38;;;;;;;19.30;7.03;;;;;;;;;;5035189;28;20303;-68
2023/03/04 08:14:04;;;;;;;13.07;6.43;;;;;;;;;;5034801;28;20171;-67
2023/03/04 08:16:30;;;;;;;15.40;4.77;;;;;;;;;;5017322;28;20286;-68
2023/03/04 08:18:57;;;;;;;8.37;3.37;;;;;;;;;;5033802;28;20673;-69
2023/03/04 08:21:24;;;;;;;12.47;4.10;;;;;;;;;;5033684;28;20659;-70
2023/03/04 08:23:50;;;;;;;11.47;3.00;;;;;;;;;;5033475;28;20183;-69
2023/03/04 08:26:19;;;;;;;8.23;3.60;;;;;;;;;;5015295;28;20207;-69
2023/03/04 08:28:45;;;;;;;9.27;3.50;;;;;;;;;;5015580;28;20187;-71
2023/03/04 08:31:15;;;;;;;7.93;2.70;;;;;;;;;;5033427;28;20206;-69
2023/03/04 08:33:41;;;;;;;14.93;3.50;;;;;;;;;;5033299;28;20179;-69
2023/03/04 08:36:08;;;;;;;9.20;2.90;;;;;;;;;;5033120;28;20199;-67
2023/03/04 08:38:34;;;;;;;10.07;3.50;;;;;;;;;;5016106;28;20553;-66
2023/03/04 08:41:00;;;;;;;15.13;4.27;;;;;;;;;;5015543;28;20764;-65
2023/03/04 08:43:26;;;;;;;7.77;3.33;;;;;;;;;;5015299;28;20207;-66
2023/03/04 08:45:53;;;;;;;11.87;4.13;;;;;;;;;;5035265;28;20273;-64
2023/03/04 08:48:20;;;;;;;10.33;3.23;;;;;;;;;;5018788;28;20179;-65
2023/03/04 08:50:46;;;;;;;11.30;3.20;;;;;;;;;;5018816;28;20195;-65
2023/03/04 08:53:13;;;;;;;13.27;4.10;;;;;;;;;;5036516;28;20180;-65
2023/03/04 08:55:39;;;;;;;10.30;3.70;;;;;;;;;;5036416;28;20222;-67
2023/03/04 08:58:05;;;;;;;8.40;3.33;;;;;;;;;;5018724;28;20186;-65
2023/03/04 09:00:33;;;;;;;9.50;3.17;;;;;;;;;;5018656;28;20217;-67
2023/03/04 09:03:00;;;;;;;9.70;3.50;;;;;;;;;;5019008;28;20194;-70
2023/03/04 09:05:26;;;;;;;12.80;3.50;;;;;;;;;;5018571;28;20179;-66
2023/03/04 09:07:53;;;;;;;15.00;4.43;;;;;;;;;;5018436;28;20198;-65
2023/03/04 09:10:19;;;;;;;12.83;3.17;;;;;;;;;;5018461;28;20207;-66
2023/03/04 09:12:45;;;;;;;6.70;2.70;;;;;;;;;;5018406;28;20274;-66
2023/03/04 09:15:11;;;;;;;8.47;3.73;;;;;;;;;;5018456;28;20191;-68
2023/03/04 09:17:37;;;;;;;13.13;3.33;;;;;;;;;;5036052;28;20199;-68
2023/03/04 09:20:04;;;;;;;8.40;2.80;;;;;;;;;;5018406;28;20195;-65
2023/03/04 09:22:30;;;;;;;9.50;2.90;;;;;;;;;;5036073;28;20286;-68
2023/03/04 09:24:56;;;;;;;11.63;3.93;;;;;;;;;;5018335;28;20179;-66
2023/03/04 09:27:21;;;;;;;41.53;27.03;;;;;;;;;;5035934;28;20203;-68
2023/03/04 09:29:48;;;;;;;10.83;4.13;;;;;;;;;;5035983;28;20262;-69
2023/03/04 09:32:14;;;;;;;11.50;3.70;;;;;;;;;;5035916;28;20556;-65
2023/03/04 09:34:40;;;;;;;7.90;3.30;;;;;;;;;;5035943;28;20175;-65
2023/03/04 09:37:06;;;;;;;13.97;3.27;;;;;;;;;;5018254;28;20572;-66
2023/03/04 09:39:32;;;;;;;14.43;3.47;;;;;;;;;;5035751;28;20175;-64
2023/03/04 09:41:58;;;;;;;10.97;2.70;;;;;;;;;;5036002;28;20186;-65
2023/03/04 09:44:32;;;;;;;8.73;2.67;;;;;;;;;;5035686;28;20182;-66
2023/03/04 09:47:00;;;;;;;7.20;2.70;;;;;;;;;;5017683;28;20198;-66
2023/03/04 09:49:27;;;;;;;10.73;2.53;;;;;;;;;;5018066;28;20668;-64
2023/03/04 09:52:06;;;;;;;10.23;2.83;;;;;;;;;;5035773;28;20203;-65
2023/03/04 09:54:32;;;;;;;5.80;2.60;;;;;;;;;;5035527;28;20269;-69
2023/03/04 09:57:16;;;;;;;7.67;2.47;;;;;;;;;;5017298;28;20198;-68
2023/03/04 09:59:44;;;;;;;9.03;3.17;;;;;;;;;;5035623;28;20508;-69
2023/03/04 10:02:17;;;;;;;5.80;2.30;;;;;;;;;;5035310;28;20262;-70
2023/03/04 10:04:49;;;;;;;5.47;2.27;;;;;;;;;;5035726;28;20223;-69
2023/03/04 10:07:17;;;;;;;4.30;2.13;;;;;;;;;;5018162;28;20264;-69
2023/03/04 10:09:43;;;;;;;7.07;2.73;;;;;;;;;;5036584;28;20636;-69
2023/03/04 10:12:13;;;;;;;3.90;2.50;;;;;;;;;;5035596;28;20233;-69
2023/03/04 10:14:51;;;;;;;8.93;2.53;;;;;;;;;;5035379;28;20171;-68
2023/03/04 10:17:17;;;;;;;6.73;2.37;;;;;;;;;;5035116;28;20191;-69
2023/03/04 10:19:55;;;;;;;6.50;2.60;;;;;;;;;;5035163;28;20544;-70
2023/03/04 10:22:41;;;;;;;7.83;3.20;;;;;;;;;;5035181;28;20171;-70
2023/03/04 10:25:15;;;;;;;9.50;3.20;;;;;;;;;;5035505;28;20510;-69
2023/03/04 10:27:42;;;;;;;6.40;2.53;;;;;;;;;;5036553;28;20287;-69
2023/03/04 10:30:16;;;;;;;12.93;6.97;;;;;;;;;;5034941;28;20226;-68
2023/03/04 10:32:46;;;;;;;6.83;4.03;;;;;;;;;;5035002;28;20167;-69
2023/03/04 10:35:12;;;;;;;9.37;5.33;;;;;;;;;;5016677;28;20213;-69
2023/03/04 10:37:45;;;;;;;15.63;7.60;;;;;;;;;;5034596;28;20198;-70
2023/03/04 10:40:18;;;;;;;8.73;3.53;;;;;;;;;;5016889;28;20662;-69
2023/03/04 10:42:48;;;;;;;5.47;3.40;;;;;;;;;;5016946;28;20573;-69
2023/03/04 10:45:24;;;;;;;9.17;2.97;;;;;;;;;;5016484;28;20187;-69
2023/03/04 10:47:54;;;;;;;7.13;2.67;;;;;;;;;;5016743;28;20723;-68
2023/03/04 10:50:25;;;;;;;4.27;1.83;;;;;;;;;;5016579;28;20669;-69
2023/03/04 10:52:54;;;;;;;7.67;2.77;;;;;;;;;;5034451;28;20186;-69
2023/03/04 10:55:25;;;;;;;6.60;2.33;;;;;;;;;;5034284;28;20205;-67
2023/03/04 10:57:53;;;;;;;5.17;2.37;;;;;;;;;;5016433;28;20657;-69
2023/03/04 11:00:28;;;;;;;7.63;2.20;;;;;;;;;;5034109;28;20207;-70
2023/03/04 11:03:14;;;;;;;7.53;2.20;;;;;;;;;;5016135;28;20281;-69
2023/03/04 11:05:40;;;;;;;7.83;2.80;;;;;;;;;;5015841;28;20198;-69
2023/03/04 11:08:16;;;;;;;6.77;2.37;;;;;;;;;;5016112;28;20183;-68
2023/03/04 11:10:42;;;;;;;7.77;2.67;;;;;;;;;;5016237;28;20204;-68
2023/03/04 11:13:19;;;;;;;9.27;2.60;;;;;;;;;;5033999;28;20554;-69
2023/03/04 11:15:55;;;;;;;7.30;2.23;;;;;;;;;;5034146;28;20197;-69
2023/03/04 11:18:40;;;;;;;4.47;2.47;;;;;;;;;;5033788;28;20170;-69
2023/03/04 11:21:06;;;;;;;3.13;1.80;;;;;;;;;;5016164;28;20322;-69
2023/03/04 11:23:35;;;;;;;7.87;2.23;;;;;;;;;;5033710;28;20182;-69
2023/03/04 11:26:03;;;;;;;4.90;2.30;;;;;;;;;;5033996;28;20336;-69
2023/03/04 11:28:37;;;;;;;5.17;2.77;;;;;;;;;;5033858;28;20648;-68
2023/03/04 11:31:06;;;;;;;6.77;3.30;;;;;;;;;;5033758;28;20190;-69
2023/03/04 11:33:35;;;;;;;6.03;3.37;;;;;;;;;;5033837;28;20253;-69
2023/03/04 11:36:06;;;;;;;6.30;2.50;;;;;;;;;;5033795;28;20244;-71
2023/03/04 11:38:34;;;;;;;6.87;2.60;;;;;;;;;;5033848;28;20164;-66
2023/03/04 11:41:05;;;;;;;6.63;3.70;;;;;;;;;;5015948;28;20179;-73
2023/03/04 11:43:35;;;;;;;7.10;2.70;;;;;;;;;;5016002;28;20183;-69
2023/03/04 11:46:28;;;;;;;10.30;6.07;;;;;;;;;;5016061;28;20699;-65
2023/03/04 11:49:05;;;;;;;9.93;3.00;;;;;;;;;;5033609;28;20163;-68
2023/03/04 11:51:36;;;;;;;4.13;2.33;;;;;;;;;;5033400;28;20237;-68
2023/03/04 11:54:05;;;;;;;4.77;2.33;;;;;;;;;;5033678;28;20222;-69
2023/03/04 11:56:34;;;;;;;3.50;2.30;;;;;;;;;;5033440;28;20199;-68
2023/03/04 11:59:20;;;;;;;6.03;2.63;;;;;;;;;;5015836;28;20202;-69
2023/03/04 12:01:46;;;;;;;4.53;2.23;;;;;;;;;;5033548;28;20163;-68
2023/03/04 12:04:20;;;;;;;3.57;2.37;;;;;;;;;;5015657;28;20189;-68
2023/03/04 12:06:56;;;;;;;5.77;3.07;;;;;;;;;;5033060;28;20671;-67
2023/03/04 12:09:42;;;;;;;6.93;2.70;;;;;;;;;;5033218;28;20571;-66
2023/03/04 12:12:33;;;;;;;5.73;2.13;;;;;;;;;;5033644;28;20185;-66
2023/03/04 12:15:18;;;;;;;3.13;2.20;;;;;;;;;;5033122;28;20163;-67
2023/03/04 12:17:46;;;;;;;5.73;2.97;;;;;;;;;;5033195;28;20210;-68
2023/03/04 12:20:18;;;;;;;4.20;2.90;;;;;;;;;;5034763;28;20206;-67
2023/03/04 12:22:46;;;;;;;8.73;2.47;;;;;;;;;;5019505;28;20187;-67
2023/03/04 12:25:18;;;;;;;6.90;2.47;;;;;;;;;;5037401;28;20214;-67
2023/03/04 12:27:47;;;;;;;3.43;2.03;;;;;;;;;;5036845;28;20203;-69
2023/03/04 12:30:21;;;;;;;4.00;2.23;;;;;;;;;;5037164;28;20230;-68
2023/03/04 12:32:57;;;;;;;4.47;2.67;;;;;;;;;;5019482;28;20687;-67
2023/03/04 12:35:23;;;;;;;5.57;2.60;;;;;;;;;;5019123;28;20203;-67
2023/03/04 12:37:53;;;;;;;7.23;3.07;;;;;;;;;;5020104;28;20176;-65
2023/03/04 12:40:28;;;;;;;8.20;3.23;;;;;;;;;;5038250;28;20175;-68
2023/03/04 12:43:14;;;;;;;5.70;3.20;;;;;;;;;;5036563;28;20186;-69
2023/03/04 12:45:46;;;;;;;6.90;2.37;;;;;;;;;;5036242;28;20268;-70
2023/03/04 12:48:32;;;;;;;3.10;2.13;;;;;;;;;;5036723;28;20179;-69
2023/03/04 12:51:25;;;;;;;4.80;3.33;;;;;;;;;;5036536;28;20736;-65
2023/03/04 12:54:09;;;;;;;6.23;2.97;;;;;;;;;;5016764;28;20244;-68
2023/03/04 12:56:42;;;;;;;6.10;2.97;;;;;;;;;;5036318;28;20621;-68
2023/03/04 12:59:13;;;;;;;5.87;3.40;;;;;;;;;;5036933;28;20194;-69
2023/03/04 13:01:42;;;;;;;6.40;2.67;;;;;;;;;;5018688;28;20691;-69
2023/03/04 13:04:11;;;;;;;4.23;3.00;;;;;;;;;;5036252;28;20187;-69
2023/03/04 13:06:46;;;;;;;4.00;2.70;;;;;;;;;;5018337;28;20550;-69
2023/03/04 13:09:20;;;;;;;4.63;2.60;;;;;;;;;;5018584;28;20182;-68
2023/03/04 13:11:51;;;;;;;3.27;2.53;;;;;;;;;;5036276;28;20337;-69
2023/03/04 13:14:20;;;;;;;5.17;3.03;;;;;;;;;;5018594;28;20171;-67
2023/03/04 13:16:50;;;;;;;6.17;2.97;;;;;;;;;;5036244;28;20199;-69
2023/03/04 13:19:35;;;;;;;5.43;3.13;;;;;;;;;;5036697;28;20182;-68
2023/03/04 13:22:01;;;;;;;3.63;2.53;;;;;;;;;;5037976;28;20600;-69
2023/03/04 13:24:49;;;;;;;7.33;2.50;;;;;;;;;;5038609;28;20183;-70
2023/03/04 13:27:33;;;;;;;3.93;2.93;;;;;;;;;;5020417;28;20206;-69
2023/03/04 13:29:59;;;;;;;4.43;3.13;;;;;;;;;;5036210;28;20261;-69
2023/03/04 13:32:36;;;;;;;3.90;2.70;;;;;;;;;;5016787;28;20290;-69
2023/03/04 13:35:02;;;;;;;8.00;6.00;;;;;;;;;;5036046;28;20217;-69
2023/03/04 13:37:29;;;;;;;5.90;3.00;;;;;;;;;;5035701;28;20211;-69
2023/03/04 13:40:14;;;;;;;4.77;2.67;;;;;;;;;;5017967;28;20179;-69
2023/03/04 13:42:41;;;;;;;2.43;2.20;;;;;;;;;;5017967;28;20180;-71
2023/03/04 13:45:27;;;;;;;2.40;2.00;;;;;;;;;;5035740;28;20677;-68
2023/03/04 13:47:53;;;;;;;2.30;2.10;;;;;;;;;;5035799;28;20183;-69
2023/03/04 13:50:21;;;;;;;5.50;2.50;;;;;;;;;;5035570;28;20286;-69
2023/03/04 13:52:48;;;;;;;3.60;3.30;;;;;;;;;;5035523;28;20672;-68
2023/03/04 13:55:52;;;;;;;6.13;3.30;;;;;;;;;;5035847;28;20187;-69
2023/03/04 13:58:23;;;;;;;4.23;2.20;;;;;;;;;;4955086;29;20182;-69
2023/03/04 14:00:51;;;;;;;5.67;2.53;;;;;;;;;;4955155;29;20281;-69
2023/03/04 14:03:27;;;;;;;3.93;2.00;;;;;;;;;;4989037;28;20191;-69
2023/03/04 14:06:12;;;;;;;2.47;2.10;;;;;;;;;;5017238;28;20250;-69
2023/03/04 14:08:38;;;;;;;2.73;2.33;;;;;;;;;;5035085;28;20693;-69
2023/03/04 14:11:04;;;;;;;3.93;2.63;;;;;;;;;;5017419;28;20314;-69
2023/03/04 14:13:30;;;;;;;3.77;2.20;;;;;;;;;;5017370;28;20183;-69
2023/03/04 14:15:57;;;;;;;3.87;2.53;;;;;;;;;;5035912;28;20221;-69
2023/03/04 14:18:26;;;;;;;4.40;2.57;;;;;;;;;;5034985;28;20202;-69
2023/03/04 14:20:57;;;;;;;3.10;2.43;;;;;;;;;;5035049;28;20195;-69
2023/03/04 14:23:34;;;;;;;2.70;2.50;;;;;;;;;;5017293;28;20175;-68
2023/03/04 14:26:06;;;;;;;4.20;2.80;;;;;;;;;;5017617;28;20624;-69
2023/03/04 14:28:32;;;;;;;6.53;3.23;;;;;;;;;;5017212;28;20183;-70
2023/03/04 14:30:58;;;;;;;5.10;3.23;;;;;;;;;;5017195;28;20213;-69
2023/03/04 14:33:25;;;;;;;4.20;3.37;;;;;;;;;;5017416;28;20183;-68
2023/03/04 14:35:53;;;;;;;3.63;2.80;;;;;;;;;;5034801;28;20282;-69
2023/03/04 14:38:28;;;;;;;3.00;2.40;;;;;;;;;;5017042;28;20194;-70
2023/03/04 14:40:57;;;;;;;3.20;2.57;;;;;;;;;;5017221;28;20191;-69
2023/03/04 14:43:23;;;;;;;5.53;2.90;;;;;;;;;;5016571;28;20191;-70